sensor_id;sensor_type;location;lat;lon;timestamp;pressure;altitude;pressure_sealevel;temperature;humidity
62333;BME280;48624;49.812;8.562;2023-05-14T00:02:05;100713.84;;;10.68;98.46
62333;BME280;48624;49.812;8.562;2023-05-14T00:04:30;100717.56;;;10.66;98.65
62333;BME280;48624;49.812;8.562;2023-05-14T00:06:55;100706.88;;;10.67;98.31
62333;BME280;48624;49.812;8.562;2023-05-14T00:09:21;100703.34;;;10.67;98.33
62333;BME280;48624;49.812;8.562;2023-05-14T00:11:47;100699.41;;;10.60;98.15
62333;BME280;48624;49.812;8.562;2023-05-14T00:14:12;100698.41;;;10.75;96.59
62333;BME280;48624;49.812;8.562;2023-05-14T00:16:38;100702.22;;;10.71;96.66
62333;BME280;48624;49.812;8.562;2023-05-14T00:19:04;100696.19;;;10.69;97.10
62333;BME280;48624;49.812;8.562;2023-05-14T00:21:29;100695.06;;;10.59;98.16
62333;BME280;48624;49.812;8.562;2023-05-14T00:23:56;100695.44;;;10.52;98.76
62333;BME280;48624;49.812;8.562;2023-05-14T00:26:21;100695.38;;;10.54;98.51
62333;BME280;48624;49.812;8.562;2023-05-14T00:28:46;100684.50;;;10.44;99.01
62333;BME280;48624;49.812;8.562;2023-05-14T00:31:13;100694.03;;;10.32;100.00
62333;BME280;48624;49.812;8.562;2023-05-14T00:33:38;100682.50;;;10.19;99.66
62333;BME280;48624;49.812;8.562;2023-05-14T00:36:04;100688.84;;;9.73;100.00
62333;BME280;48624;49.812;8.562;2023-05-14T00:38:29;100689.50;;;9.76;100.00
62333;BME280;48624;49.812;8.562;2023-05-14T00:40:54;100676.56;;;9.86;100.00
62333;BME280;48624;49.812;8.562;2023-05-14T00:43:20;100677.22;;;9.75;100.00
62333;BME280;48624;49.812;8.562;2023-05-14T00:45:49;100671.84;;;9.91;100.00
62333;BME280;48624;49.812;8.562;2023-05-14T00:48:14;100682.03;;;9.54;100.00
62333;BME280;48624;49.812;8.562;2023-05-14T00:50:41;100677.06;;;9.33;100.00
62333;BME280;48624;49.812;8.562;2023-05-14T00:53:06;100673.31;;;9.37;100.00
62333;BME280;48624;49.812;8.562;2023-05-14T00:55:35;100672.28;;;9.40;100.00
62333;BME280;48624;49.812;8.562;2023-05-14T00:58:04;100672.09;;;9.43;100.00
62333;BME280;48624;49.812;8.562;2023-05-14T01:00:31;100679.13;;;9.58;100.00
62333;BME280;48624;49.812;8.562;2023-05-14T01:02:56;100674.94;;;9.54;100.00
62333;BME280;48624;49.812;8.562;2023-05-14T01:05:27;100663.53;;;9.83;100.00
62333;BME280;48624;49.812;8.562;2023-05-14T01:08:11;100657.75;;;9.76;100.00
62333;BME280;48624;49.812;8.562;2023-05-14T01:10:46;100667.28;;;9.50;100.00
62333;BME280;48624;49.812;8.562;2023-05-14T01:13:20;100666.00;;;9.26;100.00
62333;BME280;48624;49.812;8.562;2023-05-14T01:15:47;100666.31;;;9.36;100.00
62333;BME280;48624;49.812;8.562;2023-05-14T01:18:17;100667.03;;;9.24;100.00
62333;BME280;48624;49.812;8.562;2023-05-14T01:20:43;100671.34;;;9.10;100.00
62333;BME280;48624;49.812;8.562;2023-05-14T01:23:09;100663.91;;;9.17;100.00
62333;BME280;48624;49.812;8.562;2023-05-14T01:25:34;100666.78;;;8.98;100.00
62333;BME280;48624;49.812;8.562;2023-05-14T01:28:15;100666.59;;;9.01;100.00
62333;BME280;48624;49.812;8.562;2023-05-14T01:31:00;100660.16;;;9.05;100.00
62333;BME280;48624;49.812;8.562;2023-05-14T01:33:31;100667.66;;;8.82;100.00
62333;BME280;48624;49.812;8.562;2023-05-14T01:35:57;100661.06;;;8.90;100.00
62333;BME280;48624;49.812;8.562;2023-05-14T01:38:23;100671.66;;;8.90;100.00
62333;BME280;48624;49.812;8.562;2023-05-14T01:40:49;100660.97;;;8.91;100.00
62333;BME280;48624;49.812;8.562;2023-05-14T01:43:15;100661.22;;;8.86;100.00
62333;BME280;48624;49.812;8.562;2023-05-14T01:45:42;100667.13;;;8.92;100.00
62333;BME280;48624;49.812;8.562;2023-05-14T01:48:07;100662.81;;;8.74;100.00
62333;BME280;48624;49.812;8.562;2023-05-14T01:50:33;100663.56;;;8.77;100.00
62333;BME280;48624;49.812;8.562;2023-05-14T01:52:58;100667.34;;;9.03;100.00
62333;BME280;48624;49.812;8.562;2023-05-14T01:55:24;100667.97;;;8.92;100.00
62333;BME280;48624;49.812;8.562;2023-05-14T01:57:53;100670.72;;;8.74;100.00
62333;BME280;48624;49.812;8.562;2023-05-14T02:00:19;100660.84;;;8.62;100.00
62333;BME280;48624;49.812;8.562;2023-05-14T02:02:44;100655.56;;;8.62;100.00
62333;BME280;48624;49.812;8.562;2023-05-14T02:05:11;100653.25;;;8.72;100.00
62333;BME280;48624;49.812;8.562;2023-05-14T02:07:36;100651.78;;;8.82;100.00
62333;BME280;48624;49.812;8.562;2023-05-14T02:10:02;100651.81;;;8.66;100.00
62333;BME280;48624;49.812;8.562;2023-05-14T02:12:27;100651.47;;;8.56;100.00
62333;BME280;48624;49.812;8.562;2023-05-14T02:14:53;100657.69;;;8.39;100.00
62333;BME280;48624;49.812;8.562;2023-05-14T02:17:19;100654.66;;;8.63;100.00
62333;BME280;48624;49.812;8.562;2023-05-14T02:19:44;100653.59;;;8.50;100.00
62333;BME280;48624;49.812;8.562;2023-05-14T02:22:10;100652.56;;;8.36;100.00
62333;BME280;48624;49.812;8.562;2023-05-14T02:24:35;100654.09;;;8.40;100.00
62333;BME280;48624;49.812;8.562;2023-05-14T02:27:01;100649.16;;;8.50;100.00
62333;BME280;48624;49.812;8.562;2023-05-14T02:29:26;100640.34;;;8.51;100.00
62333;BME280;48624;49.812;8.562;2023-05-14T02:31:51;100644.56;;;8.70;100.00
62333;BME280;48624;49.812;8.562;2023-05-14T02:34:17;100647.25;;;8.54;100.00
62333;BME280;48624;49.812;8.562;2023-05-14T02:36:42;100651.97;;;8.47;100.00
62333;BME280;48624;49.812;8.562;2023-05-14T02:39:07;100642.34;;;8.46;100.00
62333;BME280;48624;49.812;8.562;2023-05-14T02:41:33;100642.78;;;8.70;100.00
62333;BME280;48624;49.812;8.562;2023-05-14T02:43:58;100650.94;;;8.82;100.00
62333;BME280;48624;49.812;8.562;2023-05-14T02:46:23;100649.38;;;8.63;100.00
62333;BME280;48624;49.812;8.562;2023-05-14T02:48:49;100646.63;;;8.65;100.00
62333;BME280;48624;49.812;8.562;2023-05-14T02:51:14;100647.97;;;8.72;100.00
62333;BME280;48624;49.812;8.562;2023-05-14T02:53:40;100647.13;;;8.55;100.00
62333;BME280;48624;49.812;8.562;2023-05-14T02:56:05;100638.94;;;8.60;100.00
62333;BME280;48624;49.812;8.562;2023-05-14T02:58:32;100640.56;;;8.63;100.00
62333;BME280;48624;49.812;8.562;2023-05-14T03:00:57;100637.19;;;8.60;100.00
62333;BME280;48624;49.812;8.562;2023-05-14T03:03:22;100637.00;;;8.64;100.00
62333;BME280;48624;49.812;8.562;2023-05-14T03:05:48;100636.41;;;8.58;100.00
62333;BME280;48624;49.812;8.562;2023-05-14T03:08:13;100645.84;;;8.46;100.00
62333;BME280;48624;49.812;8.562;2023-05-14T03:10:38;100637.16;;;8.44;100.00
62333;BME280;48624;49.812;8.562;2023-05-14T03:13:04;100639.00;;;8.42;100.00
62333;BME280;48624;49.812;8.562;2023-05-14T03:15:29;100639.63;;;8.47;100.00
62333;BME280;48624;49.812;8.562;2023-05-14T03:17:55;100634.53;;;8.44;100.00
62333;BME280;48624;49.812;8.562;2023-05-14T03:20:23;100632.22;;;8.38;100.00
62333;BME280;48624;49.812;8.562;2023-05-14T03:22:49;100630.16;;;8.43;100.00
62333;BME280;48624;49.812;8.562;2023-05-14T03:25:14;100628.81;;;8.36;100.00
62333;BME280;48624;49.812;8.562;2023-05-14T03:27:40;100635.56;;;8.58;100.00
62333;BME280;48624;49.812;8.562;2023-05-14T03:30:05;100632.88;;;8.74;100.00
62333;BME280;48624;49.812;8.562;2023-05-14T03:32:31;100628.88;;;8.67;100.00
62333;BME280;48624;49.812;8.562;2023-05-14T03:34:56;100624.28;;;8.38;100.00
62333;BME280;48624;49.812;8.562;2023-05-14T03:37:22;100640.63;;;8.45;100.00
62333;BME280;48624;49.812;8.562;2023-05-14T03:39:47;100635.63;;;8.40;100.00
62333;BME280;48624;49.812;8.562;2023-05-14T03:42:12;100634.00;;;8.38;100.00
62333;BME280;48624;49.812;8.562;2023-05-14T03:44:38;100637.50;;;8.38;100.00
62333;BME280;48624;49.812;8.562;2023-05-14T03:47:03;100639.00;;;8.42;100.00
62333;BME280;48624;49.812;8.562;2023-05-14T03:49:29;100629.06;;;8.31;100.00
62333;BME280;48624;49.812;8.562;2023-05-14T03:51:54;100625.56;;;8.47;100.00
62333;BME280;48624;49.812;8.562;2023-05-14T03:54:20;100622.44;;;8.56;100.00
62333;BME280;48624;49.812;8.562;2023-05-14T03:56:45;100629.81;;;8.50;100.00
62333;BME280;48624;49.812;8.562;2023-05-14T03:59:10;100623.34;;;8.39;100.00
62333;BME280;48624;49.812;8.562;2023-05-14T04:01:35;100634.09;;;8.36;100.00
62333;BME280;48624;49.812;8.562;2023-05-14T04:04:02;100630.00;;;8.30;100.00
62333;BME280;48624;49.812;8.562;2023-05-14T04:06:27;100634.00;;;8.38;100.00
62333;BME280;48624;49.812;8.562;2023-05-14T04:08:53;100636.47;;;8.25;100.00
62333;BME280;48624;49.812;8.562;2023-05-14T04:11:18;100637.56;;;8.37;100.00
62333;BME280;48624;49.812;8.562;2023-05-14T04:13:43;100646.97;;;8.58;100.00
62333;BME280;48624;49.812;8.562;2023-05-14T04:16:09;100640.09;;;8.86;100.00
62333;BME280;48624;49.812;8.562;2023-05-14T04:18:34;100632.53;;;8.80;100.00
62333;BME280;48624;49.812;8.562;2023-05-14T04:21:00;100637.72;;;8.82;100.00
62333;BME280;48624;49.812;8.562;2023-05-14T04:23:26;100636.47;;;8.73;100.00
62333;BME280;48624;49.812;8.562;2023-05-14T04:25:51;100639.19;;;8.71;100.00
62333;BME280;48624;49.812;8.562;2023-05-14T04:28:16;100633.75;;;8.74;100.00
62333;BME280;48624;49.812;8.562;2023-05-14T04:30:41;100646.09;;;8.74;100.00
62333;BME280;48624;49.812;8.562;2023-05-14T04:33:07;100644.53;;;8.86;100.00
62333;BME280;48624;49.812;8.562;2023-05-14T04:35:32;100644.63;;;8.84;100.00
62333;BME280;48624;49.812;8.562;2023-05-14T04:37:57;100643.09;;;8.80;100.00
62333;BME280;48624;49.812;8.562;2023-05-14T04:40:22;100642.31;;;8.94;100.00
62333;BME280;48624;49.812;8.562;2023-05-14T04:42:48;100637.09;;;8.93;100.00
62333;BME280;48624;49.812;8.562;2023-05-14T04:45:13;100644.81;;;9.12;100.00
62333;BME280;48624;49.812;8.562;2023-05-14T04:47:39;100646.94;;;9.05;100.00
62333;BME280;48624;49.812;8.562;2023-05-14T04:50:04;100644.00;;;9.26;100.00
62333;BME280;48624;49.812;8.562;2023-05-14T04:52:30;100642.19;;;9.26;100.00
62333;BME280;48624;49.812;8.562;2023-05-14T04:54:55;100635.53;;;9.35;100.00
62333;BME280;48624;49.812;8.562;2023-05-14T04:57:21;100644.78;;;9.42;100.00
62333;BME280;48624;49.812;8.562;2023-05-14T04:59:47;100638.84;;;9.53;100.00
62333;BME280;48624;49.812;8.562;2023-05-14T05:02:12;100643.59;;;9.63;100.00
62333;BME280;48624;49.812;8.562;2023-05-14T05:04:38;100643.00;;;9.57;100.00
62333;BME280;48624;49.812;8.562;2023-05-14T05:07:03;100647.16;;;9.76;100.00
62333;BME280;48624;49.812;8.562;2023-05-14T05:09:29;100652.94;;;9.83;100.00
62333;BME280;48624;49.812;8.562;2023-05-14T05:11:55;100644.91;;;9.84;100.00
62333;BME280;48624;49.812;8.562;2023-05-14T05:14:20;100656.44;;;9.98;100.00
62333;BME280;48624;49.812;8.562;2023-05-14T05:16:45;100653.31;;;10.06;100.00
62333;BME280;48624;49.812;8.562;2023-05-14T05:19:11;100653.69;;;9.99;100.00
62333;BME280;48624;49.812;8.562;2023-05-14T05:21:37;100654.50;;;10.14;100.00
62333;BME280;48624;49.812;8.562;2023-05-14T05:24:05;100658.69;;;10.19;100.00
62333;BME280;48624;49.812;8.562;2023-05-14T05:26:30;100660.00;;;10.26;100.00
62333;BME280;48624;49.812;8.562;2023-05-14T05:28:56;100663.94;;;10.33;100.00
62333;BME280;48624;49.812;8.562;2023-05-14T05:31:21;100664.31;;;10.56;100.00
62333;BME280;48624;49.812;8.562;2023-05-14T05:33:46;100659.09;;;10.54;100.00
62333;BME280;48624;49.812;8.562;2023-05-14T05:36:12;100668.97;;;10.80;100.00
62333;BME280;48624;49.812;8.562;2023-05-14T05:38:37;100662.38;;;10.73;100.00
62333;BME280;48624;49.812;8.562;2023-05-14T05:41:02;100665.69;;;10.89;100.00
62333;BME280;48624;49.812;8.562;2023-05-14T05:43:27;100659.94;;;11.10;100.00
62333;BME280;48624;49.812;8.562;2023-05-14T05:45:53;100664.72;;;11.18;100.00
62333;BME280;48624;49.812;8.562;2023-05-14T05:48:18;100671.63;;;11.33;100.00
62333;BME280;48624;49.812;8.562;2023-05-14T05:50:46;100671.53;;;11.35;100.00
62333;BME280;48624;49.812;8.562;2023-05-14T05:53:13;100671.22;;;11.27;100.00
62333;BME280;48624;49.812;8.562;2023-05-14T05:55:40;100670.69;;;11.21;100.00
62333;BME280;48624;49.812;8.562;2023-05-14T05:58:05;100660.09;;;11.47;100.00
62333;BME280;48624;49.812;8.562;2023-05-14T06:00:31;100671.53;;;11.35;100.00
62333;BME280;48624;49.812;8.562;2023-05-14T06:02:56;100666.47;;;11.71;100.00
62333;BME280;48624;49.812;8.562;2023-05-14T06:05:21;100661.28;;;11.82;100.00
62333;BME280;48624;49.812;8.562;2023-05-14T06:07:47;100660.63;;;11.78;100.00
62333;BME280;48624;49.812;8.562;2023-05-14T06:10:12;100660.81;;;12.27;100.00
62333;BME280;48624;49.812;8.562;2023-05-14T06:12:37;100664.63;;;12.23;99.04
62333;BME280;48624;49.812;8.562;2023-05-14T06:15:03;100663.88;;;12.21;98.56
62333;BME280;48624;49.812;8.562;2023-05-14T06:17:28;100664.50;;;12.38;98.47
62333;BME280;48624;49.812;8.562;2023-05-14T06:19:54;100668.72;;;12.53;99.74
62333;BME280;48624;49.812;8.562;2023-05-14T06:22:19;100667.69;;;12.67;96.98
62333;BME280;48624;49.812;8.562;2023-05-14T06:24:44;100674.13;;;12.76;97.21
62333;BME280;48624;49.812;8.562;2023-05-14T06:27:10;100663.47;;;13.00;96.81
62333;BME280;48624;49.812;8.562;2023-05-14T06:29:36;100665.13;;;12.90;96.16
62333;BME280;48624;49.812;8.562;2023-05-14T06:32:02;100666.72;;;12.93;94.60
62333;BME280;48624;49.812;8.562;2023-05-14T06:34:28;100659.31;;;13.21;93.82
62333;BME280;48624;49.812;8.562;2023-05-14T06:36:53;100660.06;;;13.23;93.38
62333;BME280;48624;49.812;8.562;2023-05-14T06:39:18;100663.41;;;13.49;93.28
62333;BME280;48624;49.812;8.562;2023-05-14T06:41:44;100660.28;;;13.20;93.58
62333;BME280;48624;49.812;8.562;2023-05-14T06:44:09;100655.09;;;13.29;94.13
62333;BME280;48624;49.812;8.562;2023-05-14T06:46:35;100646.09;;;13.55;93.80
62333;BME280;48624;49.812;8.562;2023-05-14T06:49:00;100646.63;;;13.83;90.98
62333;BME280;48624;49.812;8.562;2023-05-14T06:51:26;100638.28;;;13.65;90.29
62333;BME280;48624;49.812;8.562;2023-05-14T06:53:51;100635.50;;;13.78;90.58
62333;BME280;48624;49.812;8.562;2023-05-14T06:56:18;100642.25;;;13.59;91.52
62333;BME280;48624;49.812;8.562;2023-05-14T06:58:43;100641.66;;;13.67;91.04
62333;BME280;48624;49.812;8.562;2023-05-14T07:01:08;100630.03;;;13.68;91.28
62333;BME280;48624;49.812;8.562;2023-05-14T07:03:34;100633.03;;;14.20;89.93
62333;BME280;48624;49.812;8.562;2023-05-14T07:05:59;100633.22;;;14.40;88.88
62333;BME280;48624;49.812;8.562;2023-05-14T07:08:24;100634.47;;;14.36;89.03
62333;BME280;48624;49.812;8.562;2023-05-14T07:10:50;100635.00;;;14.62;81.65
62333;BME280;48624;49.812;8.562;2023-05-14T07:13:15;100642.56;;;15.11;81.15
62333;BME280;48624;49.812;8.562;2023-05-14T07:15:40;100636.66;;;15.07;76.92
62333;BME280;48624;49.812;8.562;2023-05-14T07:18:05;100640.88;;;15.10;75.49
62333;BME280;48624;49.812;8.562;2023-05-14T07:20:31;100632.69;;;15.23;71.93
62333;BME280;48624;49.812;8.562;2023-05-14T07:22:56;100633.09;;;15.39;72.58
62333;BME280;48624;49.812;8.562;2023-05-14T07:25:21;100633.00;;;15.51;71.65
62333;BME280;48624;49.812;8.562;2023-05-14T07:27:46;100627.63;;;15.72;71.06
62333;BME280;48624;49.812;8.562;2023-05-14T07:30:12;100625.66;;;15.74;74.08
62333;BME280;48624;49.812;8.562;2023-05-14T07:32:37;100619.09;;;16.19;71.65
62333;BME280;48624;49.812;8.562;2023-05-14T07:35:03;100619.97;;;16.30;69.87
62333;BME280;48624;49.812;8.562;2023-05-14T07:37:28;100624.06;;;16.44;68.80
62333;BME280;48624;49.812;8.562;2023-05-14T07:39:53;100618.16;;;16.40;69.13
62333;BME280;48624;49.812;8.562;2023-05-14T07:42:20;100622.69;;;16.59;67.10
62333;BME280;48624;49.812;8.562;2023-05-14T07:44:45;100610.84;;;16.42;68.01
62333;BME280;48624;49.812;8.562;2023-05-14T07:47:10;100613.53;;;16.52;69.11
62333;BME280;48624;49.812;8.562;2023-05-14T07:49:36;100608.75;;;16.56;67.42
62333;BME280;48624;49.812;8.562;2023-05-14T07:52:01;100600.03;;;16.73;67.17
62333;BME280;48624;49.812;8.562;2023-05-14T07:54:28;100600.16;;;16.82;68.23
62333;BME280;48624;49.812;8.562;2023-05-14T07:56:53;100603.41;;;17.05;66.66
62333;BME280;48624;49.812;8.562;2023-05-14T07:59:19;100596.50;;;16.73;64.41
62333;BME280;48624;49.812;8.562;2023-05-14T08:01:44;100605.25;;;16.55;66.63
62333;BME280;48624;49.812;8.562;2023-05-14T08:04:09;100603.56;;;17.03;66.43
62333;BME280;48624;49.812;8.562;2023-05-14T08:06:36;100599.75;;;16.86;67.44
62333;BME280;48624;49.812;8.562;2023-05-14T08:09:02;100595.91;;;16.99;66.35
62333;BME280;48624;49.812;8.562;2023-05-14T08:11:29;100592.41;;;16.98;65.91
62333;BME280;48624;49.812;8.562;2023-05-14T08:13:55;100593.41;;;16.87;66.92
62333;BME280;48624;49.812;8.562;2023-05-14T08:16:20;100591.56;;;16.98;64.40
62333;BME280;48624;49.812;8.562;2023-05-14T08:18:45;100590.16;;;16.64;67.18
62333;BME280;48624;49.812;8.562;2023-05-14T08:21:11;100595.53;;;16.64;65.22
62333;BME280;48624;49.812;8.562;2023-05-14T08:23:36;100595.22;;;17.16;62.98
62333;BME280;48624;49.812;8.562;2023-05-14T08:26:01;100586.47;;;17.24;62.78
62333;BME280;48624;49.812;8.562;2023-05-14T08:28:27;100591.09;;;17.32;63.47
62333;BME280;48624;49.812;8.562;2023-05-14T08:30:52;100587.19;;;17.26;64.54
62333;BME280;48624;49.812;8.562;2023-05-14T08:33:18;100580.53;;;17.30;65.49
62333;BME280;48624;49.812;8.562;2023-05-14T08:35:43;100583.13;;;17.02;65.95
62333;BME280;48624;49.812;8.562;2023-05-14T08:38:08;100586.06;;;17.09;67.19
62333;BME280;48624;49.812;8.562;2023-05-14T08:40:34;100588.03;;;16.87;66.55
62333;BME280;48624;49.812;8.562;2023-05-14T08:43:00;100580.88;;;17.55;62.87
62333;BME280;48624;49.812;8.562;2023-05-14T08:45:30;100575.50;;;17.17;64.70
62333;BME280;48624;49.812;8.562;2023-05-14T08:47:59;100573.31;;;17.41;65.45
62333;BME280;48624;49.812;8.562;2023-05-14T08:50:26;100571.81;;;17.28;67.05
62333;BME280;48624;49.812;8.562;2023-05-14T08:52:54;100566.44;;;17.28;66.05
62333;BME280;48624;49.812;8.562;2023-05-14T08:55:19;100566.47;;;17.18;67.39
62333;BME280;48624;49.812;8.562;2023-05-14T08:57:45;100564.16;;;17.33;67.75
62333;BME280;48624;49.812;8.562;2023-05-14T09:00:11;100549.25;;;17.87;62.22
62333;BME280;48624;49.812;8.562;2023-05-14T09:02:38;100559.94;;;17.97;63.86
62333;BME280;48624;49.812;8.562;2023-05-14T09:05:04;100557.25;;;18.25;58.06
62333;BME280;48624;49.812;8.562;2023-05-14T09:07:32;100557.25;;;17.97;61.29
62333;BME280;48624;49.812;8.562;2023-05-14T09:09:57;100555.06;;;17.82;59.78
62333;BME280;48624;49.812;8.562;2023-05-14T09:12:23;100550.44;;;18.02;59.37
62333;BME280;48624;49.812;8.562;2023-05-14T09:14:49;100548.88;;;18.10;59.08
62333;BME280;48624;49.812;8.562;2023-05-14T09:17:15;100554.53;;;17.51;64.06
62333;BME280;48624;49.812;8.562;2023-05-14T09:19:41;100550.44;;;18.02;62.16
62333;BME280;48624;49.812;8.562;2023-05-14T09:22:12;100548.13;;;17.61;63.37
62333;BME280;48624;49.812;8.562;2023-05-14T09:24:38;100542.13;;;17.50;64.34
62333;BME280;48624;49.812;8.562;2023-05-14T09:27:04;100541.53;;;17.56;64.58
62333;BME280;48624;49.812;8.562;2023-05-14T09:29:30;100544.84;;;16.72;65.86
62333;BME280;48624;49.812;8.562;2023-05-14T09:31:57;100545.31;;;17.25;66.13
62333;BME280;48624;49.812;8.562;2023-05-14T09:34:24;100543.25;;;18.03;61.54
62333;BME280;48624;49.812;8.562;2023-05-14T09:36:57;100535.03;;;17.58;62.87
62333;BME280;48624;49.812;8.562;2023-05-14T09:39:24;100535.63;;;17.52;63.02
62333;BME280;48624;49.812;8.562;2023-05-14T09:41:50;100541.41;;;17.47;64.38
62333;BME280;48624;49.812;8.562;2023-05-14T09:44:19;100548.19;;;17.80;63.64
62333;BME280;48624;49.812;8.562;2023-05-14T09:46:45;100539.59;;;17.48;63.49
62333;BME280;48624;49.812;8.562;2023-05-14T09:49:10;100542.66;;;17.81;62.41
62333;BME280;48624;49.812;8.562;2023-05-14T09:51:36;100544.41;;;18.00;60.80
62333;BME280;48624;49.812;8.562;2023-05-14T09:54:02;100541.22;;;17.59;61.58
62333;BME280;48624;49.812;8.562;2023-05-14T09:56:28;100539.00;;;18.10;59.62
62333;BME280;48624;49.812;8.562;2023-05-14T09:58:53;100544.66;;;17.79;59.39
62333;BME280;48624;49.812;8.562;2023-05-14T10:01:19;100539.88;;;17.73;59.46
62333;BME280;48624;49.812;8.562;2023-05-14T10:03:46;100552.00;;;17.49;61.42
62333;BME280;48624;49.812;8.562;2023-05-14T10:06:12;100544.75;;;17.59;60.04
62333;BME280;48624;49.812;8.562;2023-05-14T10:08:43;100546.13;;;17.64;60.27
62333;BME280;48624;49.812;8.562;2023-05-14T10:11:13;100542.97;;;17.50;61.60
62333;BME280;48624;49.812;8.562;2023-05-14T10:13:41;100549.00;;;17.52;60.51
62333;BME280;48624;49.812;8.562;2023-05-14T10:16:15;100539.50;;;17.68;60.51
62333;BME280;48624;49.812;8.562;2023-05-14T10:18:45;100544.28;;;17.36;62.64
62333;BME280;48624;49.812;8.562;2023-05-14T10:21:13;100536.53;;;17.71;60.22
62333;BME280;48624;49.812;8.562;2023-05-14T10:23:40;100546.63;;;17.49;62.81
62333;BME280;48624;49.812;8.562;2023-05-14T10:26:07;100539.16;;;17.53;64.15
62333;BME280;48624;49.812;8.562;2023-05-14T10:28:33;100544.31;;;17.64;63.29
62333;BME280;48624;49.812;8.562;2023-05-14T10:30:58;100536.63;;;18.07;61.69
62333;BME280;48624;49.812;8.562;2023-05-14T10:33:24;100537.81;;;17.95;61.44
62333;BME280;48624;49.812;8.562;2023-05-14T10:36:03;100541.16;;;17.79;61.39
62333;BME280;48624;49.812;8.562;2023-05-14T10:38:37;100537.31;;;17.53;63.31
62333;BME280;48624;49.812;8.562;2023-05-14T10:41:09;100537.31;;;17.81;62.02
62333;BME280;48624;49.812;8.562;2023-05-14T10:43:42;100536.84;;;17.30;62.77
62333;BME280;48624;49.812;8.562;2023-05-14T10:46:10;100538.63;;;17.39;64.72
62333;BME280;48624;49.812;8.562;2023-05-14T10:48:36;100526.44;;;17.55;63.13
62333;BME280;48624;49.812;8.562;2023-05-14T10:51:06;100535.38;;;17.45;64.26
62333;BME280;48624;49.812;8.562;2023-05-14T10:53:35;100524.53;;;17.47;65.63
62333;BME280;48624;49.812;8.562;2023-05-14T10:56:06;100531.13;;;17.81;63.94
62333;BME280;48624;49.812;8.562;2023-05-14T10:58:35;100527.63;;;17.98;63.97
62333;BME280;48624;49.812;8.562;2023-05-14T11:01:01;100521.25;;;18.27;61.89
62333;BME280;48624;49.812;8.562;2023-05-14T11:03:30;100524.75;;;18.28;63.99
62333;BME280;48624;49.812;8.562;2023-05-14T11:05:56;100518.97;;;18.77;59.71
62333;BME280;48624;49.812;8.562;2023-05-14T11:08:21;100522.72;;;18.84;58.78
62333;BME280;48624;49.812;8.562;2023-05-14T11:10:48;100523.81;;;18.74;59.51
62333;BME280;48624;49.812;8.562;2023-05-14T11:13:14;100517.91;;;18.96;58.24
62333;BME280;48624;49.812;8.562;2023-05-14T11:15:41;100515.75;;;19.18;59.45
62333;BME280;48624;49.812;8.562;2023-05-14T11:18:12;100520.72;;;18.68;57.07
62333;BME280;48624;49.812;8.562;2023-05-14T11:20:37;100516.69;;;18.64;60.25
62333;BME280;48624;49.812;8.562;2023-05-14T11:23:02;100514.28;;;18.79;58.21
62333;BME280;48624;49.812;8.562;2023-05-14T11:25:30;100520.50;;;18.80;58.96
62333;BME280;48624;49.812;8.562;2023-05-14T11:27:55;100514.06;;;19.17;55.85
62333;BME280;48624;49.812;8.562;2023-05-14T11:30:23;100508.69;;;19.17;56.29
62333;BME280;48624;49.812;8.562;2023-05-14T11:32:49;100515.88;;;18.90;56.40
62333;BME280;48624;49.812;8.562;2023-05-14T11:35:15;100509.03;;;18.69;57.47
62333;BME280;48624;49.812;8.562;2023-05-14T11:37:42;100512.41;;;19.24;56.48
62333;BME280;48624;49.812;8.562;2023-05-14T11:40:14;100510.84;;;19.13;54.88
62333;BME280;48624;49.812;8.562;2023-05-14T11:42:41;100500.22;;;19.38;54.52
62333;BME280;48624;49.812;8.562;2023-05-14T11:45:09;100494.78;;;19.65;52.94
62333;BME280;48624;49.812;8.562;2023-05-14T11:47:36;100501.03;;;19.31;54.75
62333;BME280;48624;49.812;8.562;2023-05-14T11:50:02;100501.59;;;18.90;53.20
62333;BME280;48624;49.812;8.562;2023-05-14T11:52:28;100498.47;;;19.21;52.95
62333;BME280;48624;49.812;8.562;2023-05-14T11:54:53;100490.22;;;19.57;51.67
62333;BME280;48624;49.812;8.562;2023-05-14T11:57:20;100489.09;;;19.68;53.50
62333;BME280;48624;49.812;8.562;2023-05-14T11:59:47;100489.88;;;20.20;52.90
62333;BME280;48624;49.812;8.562;2023-05-14T12:02:16;100486.44;;;19.85;52.17
62333;BME280;48624;49.812;8.562;2023-05-14T12:04:49;100480.22;;;19.84;53.52
62333;BME280;48624;49.812;8.562;2023-05-14T12:07:15;100469.78;;;19.73;53.98
62333;BME280;48624;49.812;8.562;2023-05-14T12:09:46;100475.50;;;19.78;52.29
62333;BME280;48624;49.812;8.562;2023-05-14T12:12:17;100480.94;;;19.94;50.66
62333;BME280;48624;49.812;8.562;2023-05-14T12:14:43;100477.53;;;19.84;51.20
62333;BME280;48624;49.812;8.562;2023-05-14T12:17:13;100469.56;;;20.17;49.62
62333;BME280;48624;49.812;8.562;2023-05-14T12:19:40;100473.91;;;20.43;50.47
62333;BME280;48624;49.812;8.562;2023-05-14T12:22:07;100470.84;;;20.71;47.49
62333;BME280;48624;49.812;8.562;2023-05-14T12:24:32;100464.28;;;20.90;47.45
62333;BME280;48624;49.812;8.562;2023-05-14T12:27:00;100464.91;;;21.17;48.04
62333;BME280;48624;49.812;8.562;2023-05-14T12:29:25;100461.16;;;21.27;47.83
62333;BME280;48624;49.812;8.562;2023-05-14T12:31:52;100450.16;;;20.72;47.31
62333;BME280;48624;49.812;8.562;2023-05-14T12:34:17;100445.09;;;20.77;47.59
62333;BME280;48624;49.812;8.562;2023-05-14T12:36:43;100443.94;;;20.71;49.76
62333;BME280;48624;49.812;8.562;2023-05-14T12:39:09;100445.66;;;20.47;48.89
62333;BME280;48624;49.812;8.562;2023-05-14T12:41:35;100445.47;;;21.62;46.32
62333;BME280;48624;49.812;8.562;2023-05-14T12:44:02;100441.34;;;21.51;47.77
62333;BME280;48624;49.812;8.562;2023-05-14T12:46:28;100432.47;;;21.66;44.01